Flight Track Log - Related Links

Times and Time Zones

All times are in EDT time to prevent confusion due to time zone crossing. See the KAP3 flight status page for this flight to view local times or setup timezone preferences in your user account.

Time Position Orientation Groundspeed Altitude Reporting Facility
EDT Latitude Longitude Course Direction KTS MPH feet Rate Location/Type
Mon 05:32:40 PM 42.3667 -71.0167 180° South 85 98 300  Level KA90
Mon 05:32:57 PM 42.3500 -71.0167 180° South 92 106 500 701 Climbing KA90
Mon 05:33:57 PM 42.3333 -71.0333 216° Southwest 92 106 1,200 650 Climbing KA90
Mon 05:34:57 PM 42.3167 -71.0667 236° Southwest 95 109 1,800 500 Climbing KA90
Mon 05:35:57 PM 42.2833 -71.0833 200° South 118 136 2,200 595 Climbing KA90
Mon 05:36:58 PM 42.2667 -71.0500 124° Southeast 123 142 3,000 706 Climbing KA90
Mon 05:37:56 PM 42.2333 -71.0333 160° South 119 137 3,600 555 Climbing KA90
Mon 05:38:57 PM 42.2167 -71.0000 124° Southeast 144 166 4,100 446 Climbing KA90
Mon 05:39:57 PM 42.2000 -70.9333 109° East 156 180 4,500 400 Climbing KA90
Mon 05:40:57 PM 42.1833 -70.8833 114° Southeast 162 186 4,900 200 Climbing KA90
Mon 05:41:57 PM 42.1833 -70.8167 90° East 187 215 4,900  Level KA90
Mon 05:42:57 PM 42.1667 -70.7500 109° East 191 220 4,900  Level KA90
Mon 05:44:00 PM 42.1614 -70.6907 97° East  Level FlightAware Approximate
Mon 05:51:00 PM 41.8994 -70.5068 114° Southeast  Level Estimated
Mon 05:52:00 PM 41.9128 -70.4530 71° East  Level FlightAware Approximate
Mon 05:53:00 PM 41.9263 -70.3992 71° East  Level FlightAware Approximate
Mon 05:54:00 PM 41.9396 -70.3455 71° East  Level FlightAware Approximate
Mon 05:55:00 PM 41.9530 -70.2916 72° East  Level FlightAware Approximate
Mon 05:56:00 PM 41.9120 -70.2779 180° South  Level Estimated
Mon 05:57:00 PM 41.8756 -70.2493 150° Southeast  Level FlightAware Approximate
Mon 05:58:00 PM 41.8392 -70.2206 150° Southeast  Level FlightAware Approximate
Mon 05:59:00 PM 41.8028 -70.1920 150° Southeast  Level FlightAware Approximate
Mon 06:00:00 PM 41.7664 -70.1634 150° Southeast  Level FlightAware Approximate
Mon 06:01:00 PM 41.7299 -70.1349 150° Southeast  Level FlightAware Approximate
Mon 06:02:00 PM 41.6935 -70.1064 150° Southeast  Level FlightAware Approximate
Mon 06:03:00 PM 41.6571 -70.0779 150° Southeast  Level FlightAware Approximate
Mon 06:04:00 PM 41.6206 -70.0494 150° Southeast  Level FlightAware Approximate
Mon 06:05:00 PM 41.5842 -70.0210 150° Southeast  Level FlightAware Approximate
Mon 06:06:00 PM 41.5877 -70.0358 189° South  Level FlightAware Approximate
Mon 06:07:00 PM 41.5460 -70.0442 189° South  Level FlightAware Approximate
Mon 06:08:00 PM 41.5041 -70.0500 180° South  Level FlightAware Approximate
Mon 06:09:00 PM 41.4619 -70.0500 180° South  Level FlightAware Approximate
Mon 06:10:00 PM 41.4197 -70.0500 180° South  Level FlightAware Approximate
Mon 06:11:00 PM 41.3775 -70.0500 180° South  Level FlightAware Approximate
Mon 06:12:00 PM 41.3353 -70.0500 180° South  Level FlightAware Approximate
Mon 06:13:00 PM 41.2931 -70.0500 180° South  Level FlightAware Approximate
Mon 06:14:00 PM 41.2509 -70.0500 180° South  Level FlightAware Approximate
Mon 06:15:00 PM 41.2500 -70.0500 180° South  Level FlightAware Approximate
Mon 06:16:00 PM 41.2531 -70.0603 180° South  Level Estimated
Mon 06:17:00 PM 41.2531 -70.0603 180° South  Level Estimated
Mon 06:18:00 PM 41.2531 -70.0603 180° South  Level Estimated
Mon 06:19:00 PM 41.2531 -70.0603 180° South  Level Estimated
Mon 06:20:00 PM 41.2531 -70.0603 180° South  Level Estimated
Mon 06:21:00 PM 41.2531 -70.0603 180° South  Level Estimated

Login

Don't have an account? Register now (free) for customized features, flight alerts, and more!